RDBK12 YMPC-YMPC
Flight info
| Callsign | RDBK12 |
|---|---|
| Flight time | N/A |
| Altitude | 5500 |
| Route | YMPC DCT CARR DCT BULKO DCT LTV DCT YMES DCT LTV DCT BULKO DCT CARR DCT YMPC |
| Aircraft | H60/M-SDFGRY/LB1 |
Departure
| Time | 2026-05-04 09:21 |
|---|---|
| Airport | RAAF Williams, Point Cook Base (YMPC) |
Arrival
| Time | N/A |
|---|---|
| Airport | RAAF Williams, Point Cook Base (YMPC) |
| Time | Latitude | Longitude | Altitude | Speed | Heading |
|---|---|---|---|---|---|
| 2026-05-04 09:09 | -37.93271 | 144.74860 | 23 ft | 0 kts | 145° |
| 2026-05-04 09:11 | -37.93277 | 144.74867 | 25 ft | 0 kts | 140° |
| 2026-05-04 09:15 | -37.93285 | 144.74869 | 22 ft | 0 kts | 232° |
| 2026-05-04 09:15 | -37.93287 | 144.74846 | 22 ft | 7 kts | 259° |
| 2026-05-04 09:15 | -37.93322 | 144.74816 | 22 ft | 7 kts | 250° |
| 2026-05-04 09:17 | -37.93421 | 144.74541 | 24 ft | 11 kts | 180° |
| 2026-05-04 09:18 | -37.93488 | 144.74545 | 24 ft | 11 kts | 169° |
| 2026-05-04 09:18 | -37.93511 | 144.74552 | 23 ft | 0 kts | 164° |
| 2026-05-04 09:19 | -37.93520 | 144.74555 | 25 ft | 5 kts | 161° |
| 2026-05-04 09:19 | -37.93563 | 144.74582 | 23 ft | 9 kts | 150° |
| 2026-05-04 09:19 | -37.93615 | 144.74634 | 23 ft | 7 kts | 124° |
| 2026-05-04 09:20 | -37.93606 | 144.74695 | 23 ft | 13 kts | 51° |
| 2026-05-04 09:20 | -37.93600 | 144.74704 | 21 ft | 0 kts | 50° |
| 2026-05-04 09:20 | -37.93596 | 144.74709 | 23 ft | 7 kts | 50° |
| 2026-05-04 09:20 | -37.93475 | 144.74884 | 50 ft | 50 kts | 49° |
| 2026-05-04 09:21 | -37.93168 | 144.75321 | 139 ft | 81 kts | 44° |
| 2026-05-04 09:21 | -37.92716 | 144.75939 | 387 ft | 104 kts | 44° |
| 2026-05-04 09:21 | -37.92348 | 144.76729 | 760 ft | 117 kts | 79° |
| 2026-05-04 09:21 | -37.92628 | 144.77734 | 1333 ft | 129 kts | 136° |
| 2026-05-04 09:22 | -37.93112 | 144.78776 | 1566 ft | 148 kts | 122° |
| 2026-05-04 09:22 | -37.93713 | 144.79884 | 1778 ft | 156 kts | 134° |
| 2026-05-04 09:22 | -37.94450 | 144.80919 | 1937 ft | 160 kts | 137° |
| 2026-05-04 09:22 | -37.95109 | 144.82088 | 2066 ft | 167 kts | 131° |
| 2026-05-04 09:23 | -37.95751 | 144.83331 | 1988 ft | 168 kts | 128° |
| 2026-05-04 09:23 | -37.96353 | 144.84598 | 1980 ft | 166 kts | 123° |
| 2026-05-04 09:23 | -37.96967 | 144.85842 | 1961 ft | 166 kts | 123° |
| 2026-05-04 09:23 | -37.97627 | 144.87115 | 1931 ft | 185 kts | 123° |
| 2026-05-04 09:25 | -38.02852 | 144.97338 | 1965 ft | 199 kts | 123° |
| 2026-05-04 09:25 | -38.03599 | 144.98820 | 1965 ft | 199 kts | 123° |
| 2026-05-04 09:26 | -38.04347 | 145.00304 | 1964 ft | 199 kts | 123° |
| 2026-05-04 09:26 | -38.05085 | 145.01795 | 1957 ft | 201 kts | 119° |
| 2026-05-04 09:26 | -38.05719 | 145.03369 | 1961 ft | 200 kts | 113° |
| 2026-05-04 09:26 | -38.06313 | 145.04965 | 1962 ft | 200 kts | 111° |
| 2026-05-04 09:27 | -38.06884 | 145.06568 | 1960 ft | 199 kts | 110° |
| 2026-05-04 09:27 | -38.07426 | 145.08184 | 1961 ft | 199 kts | 109° |
| 2026-05-04 09:27 | -38.07916 | 145.09820 | 1958 ft | 198 kts | 104° |
| 2026-05-04 09:27 | -38.08242 | 145.11481 | 1961 ft | 195 kts | 96° |
| 2026-05-04 09:28 | -38.08488 | 145.13174 | 1962 ft | 194 kts | 94° |
| 2026-05-04 09:28 | -38.08678 | 145.14875 | 1963 ft | 194 kts | 91° |
| 2026-05-04 09:28 | -38.08839 | 145.16569 | 1960 ft | 193 kts | 90° |
| 2026-05-04 09:28 | -38.08977 | 145.18258 | 1960 ft | 191 kts | 89° |
| 2026-05-04 09:29 | -38.09089 | 145.19945 | 2028 ft | 193 kts | 88° |
| 2026-05-04 09:29 | -38.09175 | 145.21665 | 2214 ft | 200 kts | 87° |
| 2026-05-04 09:29 | -38.09231 | 145.23475 | 2270 ft | 208 kts | 86° |
| 2026-05-04 09:29 | -38.09261 | 145.25314 | 2394 ft | 207 kts | 85° |
| 2026-05-04 09:30 | -38.09276 | 145.27065 | 2979 ft | 193 kts | 88° |
| 2026-05-04 09:30 | -38.09272 | 145.28786 | 3404 ft | 202 kts | 88° |
| 2026-05-04 09:30 | -38.09239 | 145.30582 | 3463 ft | 210 kts | 85° |
| 2026-05-04 09:30 | -38.09236 | 145.32450 | 3445 ft | 212 kts | 94° |
| 2026-05-04 09:31 | -38.09318 | 145.34328 | 3317 ft | 216 kts | 96° |
| 2026-05-04 09:31 | -38.09393 | 145.36172 | 3649 ft | 203 kts | 94° |
| 2026-05-04 09:31 | -38.09401 | 145.37935 | 4028 ft | 198 kts | 93° |
| 2026-05-04 09:31 | -38.09377 | 145.39707 | 4157 ft | 204 kts | 91° |
| 2026-05-04 09:32 | -38.09373 | 145.41486 | 4466 ft | 198 kts | 92° |
| 2026-05-04 09:32 | -38.09322 | 145.43236 | 4765 ft | 201 kts | 91° |
| 2026-05-04 09:34 | -38.10196 | 145.55742 | 5502 ft | 206 kts | 94° |
| 2026-05-04 09:34 | -38.10381 | 145.57554 | 5499 ft | 207 kts | 92° |
| 2026-05-04 09:34 | -38.10535 | 145.59372 | 5490 ft | 208 kts | 91° |
| 2026-05-04 09:34 | -38.10656 | 145.61171 | 5486 ft | 207 kts | 89° |
| 2026-05-04 09:35 | -38.10745 | 145.62993 | 5487 ft | 206 kts | 88° |
| 2026-05-04 09:35 | -38.10802 | 145.64837 | 5487 ft | 206 kts | 86° |
| 2026-05-04 09:35 | -38.10824 | 145.66649 | 5486 ft | 205 kts | 85° |
| 2026-05-04 09:35 | -38.10814 | 145.68434 | 5483 ft | 204 kts | 83° |
| 2026-05-04 09:37 | -38.11657 | 145.81181 | 5492 ft | 210 kts | 91° |
| 2026-05-04 09:37 | -38.11831 | 145.83028 | 5492 ft | 211 kts | 91° |
| 2026-05-04 09:38 | -38.12007 | 145.84873 | 5493 ft | 210 kts | 91° |
| 2026-05-04 09:38 | -38.12196 | 145.86706 | 5488 ft | 210 kts | 91° |
| 2026-05-04 09:38 | -38.12452 | 145.88535 | 5489 ft | 212 kts | 99° |
| 2026-05-04 09:38 | -38.12861 | 145.90340 | 5493 ft | 212 kts | 103° |
| 2026-05-04 09:39 | -38.13252 | 145.92145 | 5498 ft | 212 kts | 102° |
| 2026-05-04 09:39 | -38.13612 | 145.93958 | 5498 ft | 211 kts | 100° |
| 2026-05-04 09:39 | -38.13939 | 145.95776 | 5494 ft | 211 kts | 99° |
| 2026-05-04 09:39 | -38.14273 | 145.97592 | 5491 ft | 212 kts | 100° |
| 2026-05-04 09:40 | -38.14599 | 145.99413 | 5490 ft | 211 kts | 98° |
| 2026-05-04 09:40 | -38.14892 | 146.01234 | 5495 ft | 210 kts | 97° |
| 2026-05-04 09:40 | -38.15151 | 146.03041 | 5501 ft | 210 kts | 95° |
| 2026-05-04 09:40 | -38.15381 | 146.04876 | 5491 ft | 211 kts | 94° |
| 2026-05-04 09:41 | -38.15580 | 146.06718 | 5490 ft | 211 kts | 92° |
| 2026-05-04 09:42 | -38.16551 | 146.19583 | 5489 ft | 210 kts | 96° |
| 2026-05-04 09:43 | -38.16798 | 146.21426 | 5488 ft | 214 kts | 97° |
| 2026-05-04 09:43 | -38.17068 | 146.23302 | 5481 ft | 216 kts | 95° |
| 2026-05-04 09:43 | -38.17314 | 146.25194 | 5491 ft | 218 kts | 95° |
| 2026-05-04 09:43 | -38.17600 | 146.27088 | 5500 ft | 219 kts | 97° |
| 2026-05-04 09:44 | -38.17916 | 146.28985 | 5500 ft | 219 kts | 98° |
| 2026-05-04 09:44 | -38.18234 | 146.30880 | 5483 ft | 219 kts | 97° |
| 2026-05-04 09:44 | -38.18536 | 146.32777 | 5501 ft | 218 kts | 97° |
| 2026-05-04 09:46 | -38.19652 | 146.45948 | 5494 ft | 212 kts | 85° |
| 2026-05-04 09:46 | -38.19642 | 146.47822 | 5489 ft | 211 kts | 81° |
| 2026-05-04 09:46 | -38.19481 | 146.49666 | 5513 ft | 208 kts | 76° |
| 2026-05-04 09:47 | -38.19271 | 146.51481 | 5498 ft | 208 kts | 71° |
| 2026-05-04 09:47 | -38.18992 | 146.53280 | 5498 ft | 207 kts | 71° |
| 2026-05-04 09:49 | -38.17019 | 146.65769 | 5501 ft | 206 kts | 70° |
| 2026-05-04 09:49 | -38.16736 | 146.67530 | 5493 ft | 205 kts | 70° |
| 2026-05-04 09:49 | -38.16447 | 146.69303 | 5504 ft | 205 kts | 70° |
| 2026-05-04 09:51 | -38.14891 | 146.79958 | 5498 ft | 206 kts | 70° |
| 2026-05-04 09:51 | -38.14777 | 146.81801 | 5507 ft | 212 kts | 80° |
| 2026-05-04 09:51 | -38.14733 | 146.83664 | 5505 ft | 210 kts | 80° |
| 2026-05-04 09:51 | -38.14678 | 146.85515 | 5518 ft | 208 kts | 80° |
| 2026-05-04 09:52 | -38.14614 | 146.87356 | 5515 ft | 209 kts | 80° |
| 2026-05-04 09:52 | -38.14550 | 146.89202 | 5512 ft | 209 kts | 80° |
| 2026-05-04 09:52 | -38.14481 | 146.91019 | 5510 ft | 209 kts | 80° |
| 2026-05-04 09:52 | -38.14411 | 146.92856 | 5510 ft | 208 kts | 80° |
| 2026-05-04 09:53 | -38.14340 | 146.94693 | 5507 ft | 208 kts | 80° |
| 2026-05-04 09:53 | -38.14268 | 146.96526 | 5508 ft | 208 kts | 80° |
| 2026-05-04 09:53 | -38.14201 | 146.98361 | 5513 ft | 208 kts | 80° |
| 2026-05-04 09:53 | -38.14143 | 147.00198 | 5513 ft | 208 kts | 80° |
| 2026-05-04 09:54 | -38.14085 | 147.02036 | 5510 ft | 202 kts | 80° |
| 2026-05-04 09:54 | -38.14052 | 147.03721 | 5536 ft | 191 kts | 80° |
| 2026-05-04 09:54 | -38.14016 | 147.05380 | 5365 ft | 193 kts | 80° |
| 2026-05-04 09:54 | -38.13989 | 147.07117 | 4485 ft | 188 kts | 78° |
| 2026-05-04 09:55 | -38.13794 | 147.08635 | 3743 ft | 161 kts | 61° |
| 2026-05-04 09:55 | -38.13341 | 147.09806 | 3147 ft | 140 kts | 38° |
| 2026-05-04 09:55 | -38.12680 | 147.10715 | 2410 ft | 135 kts | 38° |
| 2026-05-04 09:55 | -38.12000 | 147.11635 | 1522 ft | 154 kts | 41° |
| 2026-05-04 09:56 | -38.11296 | 147.12592 | 894 ft | 131 kts | 53° |
| 2026-05-04 09:56 | -38.10890 | 147.13281 | 671 ft | 63 kts | 54° |
| 2026-05-04 09:56 | -38.10715 | 147.13654 | 463 ft | 35 kts | 52° |
| 2026-05-04 09:56 | -38.10565 | 147.13935 | 119 ft | 33 kts | 53° |
| 2026-05-04 09:57 | -38.10490 | 147.14021 | 28 ft | 14 kts | 235° |
| 2026-05-04 09:57 | -38.10582 | 147.13877 | 65 ft | 24 kts | 289° |
| 2026-05-04 09:57 | -38.10489 | 147.13739 | 31 ft | 8 kts | 322° |
| 2026-05-04 09:57 | -38.10480 | 147.13730 | 29 ft | 5 kts | 313° |
| 2026-05-04 09:58 | -38.10444 | 147.13687 | 30 ft | 8 kts | 305° |
| 2026-05-04 09:58 | -38.10388 | 147.13611 | 32 ft | 15 kts | 308° |
| 2026-05-04 09:58 | -38.10312 | 147.13513 | 33 ft | 13 kts | 311° |
| 2026-05-04 10:00 | -38.09864 | 147.13173 | 23 ft | 0 kts | 188° |